Time,TemperatureF,DewpointF,PressureIn,WindDirection,WindDirectionDegrees,WindSpeedMPH,WindSpeedGustMPH,Humidity,HourlyPrecipIn,Conditions,Clouds,dailyrainin,SolarRadiationWatts/m^2,SoftwareType,DateUTC
2013-04-24 00:02:00,32.0,24.0,-100.00,NNW,339,2.0,5.0,71,0.00,,,0.08,0.000000,,2013-04-24 05:02:00,
2013-04-24 00:32:00,31.0,22.0,-100.00,North,350,3.0,5.0,70,0.00,,,0.06,0.000000,,2013-04-24 05:32:00,
2013-04-24 00:42:00,31.0,22.0,-100.00,North,350,3.0,5.0,70,0.00,,,0.06,0.000000,,2013-04-24 05:42:00,
2013-04-24 00:52:00,31.0,22.0,-100.00,North,350,3.0,5.0,70,0.00,,,0.06,0.000000,,2013-04-24 05:52:00,
2013-04-24 01:02:00,31.0,22.0,-100.00,North,350,3.0,5.0,70,0.00,,,0.06,0.000000,,2013-04-24 06:02:00,
2013-04-24 01:33:00,30.0,21.0,-100.00,NW,321,2.0,5.0,70,0.00,,,0.02,0.000000,,2013-04-24 06:33:00,
2013-04-24 01:42:00,30.0,21.0,-100.00,NW,321,2.0,5.0,70,0.00,,,0.02,0.000000,,2013-04-24 06:42:00,
2013-04-24 01:52:00,30.0,21.0,-100.00,NW,321,2.0,5.0,70,0.00,,,0.02,0.000000,,2013-04-24 06:52:00,
2013-04-24 02:02:00,30.0,21.0,-100.00,NW,321,2.0,5.0,70,0.00,,,0.02,0.000000,,2013-04-24 07:02:00,
2013-04-24 02:32:00,29.0,21.0,-100.00,North,5,2.0,4.0,71,0.00,,,0.00,0.000000,,2013-04-24 07:32:00,
2013-04-24 02:42:00,29.0,21.0,-100.00,North,5,2.0,4.0,71,0.00,,,0.00,0.000000,,2013-04-24 07:42:00,
2013-04-24 02:52:00,29.0,21.0,-100.00,North,5,2.0,4.0,71,0.00,,,0.00,0.000000,,2013-04-24 07:52:00,
2013-04-24 03:02:00,29.0,21.0,-100.00,North,5,2.0,4.0,71,0.00,,,0.00,0.000000,,2013-04-24 08:02:00,
2013-04-24 03:33:00,28.0,20.0,-100.00,SSW,211,2.0,4.0,73,0.00,,,0.00,0.000000,,2013-04-24 08:33:00,
2013-04-24 03:42:00,28.0,20.0,-100.00,SSW,211,2.0,4.0,73,0.00,,,0.00,0.000000,,2013-04-24 08:42:00,
2013-04-24 03:52:00,28.0,20.0,-100.00,SSW,211,2.0,4.0,73,0.00,,,0.00,0.000000,,2013-04-24 08:52:00,
2013-04-24 04:02:00,28.0,20.0,-100.00,SSW,211,2.0,4.0,73,0.00,,,0.00,0.000000,,2013-04-24 09:02:00,
2013-04-24 04:33:00,27.0,22.0,-100.00,WSW,241,2.0,4.0,80,0.00,,,0.00,0.000000,,2013-04-24 09:33:00,
2013-04-24 04:42:00,27.0,22.0,-100.00,WSW,241,2.0,4.0,80,0.00,,,0.00,0.000000,,2013-04-24 09:42:00,
2013-04-24 04:53:00,27.0,22.0,-100.00,WSW,241,2.0,4.0,80,0.00,,,0.00,0.000000,,2013-04-24 09:53:00,
2013-04-24 05:02:00,27.0,22.0,-100.00,WSW,241,2.0,4.0,80,0.00,,,0.00,0.000000,,2013-04-24 10:02:00,
2013-04-24 05:33:00,26.0,21.0,-100.00,SSW,195,1.0,5.0,80,0.00,,,0.00,0.000000,,2013-04-24 10:33:00,
2013-04-24 05:42:00,26.0,21.0,-100.00,SSW,195,1.0,5.0,80,0.00,,,0.00,0.000000,,2013-04-24 10:42:00,
2013-04-24 05:53:00,26.0,21.0,-100.00,SSW,195,1.0,5.0,80,0.00,,,0.00,0.000000,,2013-04-24 10:53:00,
2013-04-24 06:02:00,26.0,21.0,-100.00,SSW,195,1.0,5.0,80,0.00,,,0.00,0.000000,,2013-04-24 11:02:00,
2013-04-24 06:32:00,26.0,23.0,-100.00,SSE,153,2.0,4.0,88,0.00,,,0.00,0.000000,,2013-04-24 11:32:00,
2013-04-24 06:42:00,26.0,23.0,-100.00,SSE,153,2.0,4.0,88,0.00,,,0.00,0.000000,,2013-04-24 11:42:00,
2013-04-24 06:52:00,26.0,23.0,-100.00,SSE,153,2.0,4.0,88,0.00,,,0.00,0.000000,,2013-04-24 11:52:00,
2013-04-24 07:02:00,26.0,23.0,-100.00,SSE,153,2.0,4.0,88,0.00,,,0.00,0.000000,,2013-04-24 12:02:00,
2013-04-24 07:32:00,29.0,24.0,-100.00,South,170,2.0,4.0,82,0.00,,,-99.99,33.000000,,2013-04-24 12:32:00,
2013-04-24 07:42:00,29.0,24.0,-100.00,South,170,2.0,4.0,82,0.00,,,-99.99,33.000000,,2013-04-24 12:42:00,
2013-04-24 07:52:00,29.0,24.0,-100.00,South,170,2.0,4.0,82,0.00,,,-99.99,33.000000,,2013-04-24 12:52:00,
2013-04-24 08:01:00,29.0,24.0,-100.00,South,170,2.0,4.0,82,0.00,,,-99.99,33.000000,,2013-04-24 13:01:00,
2013-04-24 10:33:00,40.0,25.0,-100.00,WSW,237,6.0,11.0,55,-99.99,,,0.00,551.000000,,2013-04-24 15:33:00,
2013-04-24 10:43:00,40.0,25.0,-100.00,WSW,237,6.0,11.0,55,-99.99,,,0.00,551.000000,,2013-04-24 15:43:00,
2013-04-24 10:53:00,40.0,25.0,-100.00,WSW,237,6.0,11.0,55,-99.99,,,0.00,551.000000,,2013-04-24 15:53:00,
2013-04-24 11:03:00,40.0,25.0,-100.00,WSW,237,6.0,11.0,55,-99.99,,,0.00,551.000000,,2013-04-24 16:03:00,
2013-04-24 12:32:00,45.0,24.0,-100.00,WSW,244,9.0,14.0,43,-99.99,,,0.00,809.000000,,2013-04-24 17:32:00,
2013-04-24 12:42:00,45.0,24.0,-100.00,WSW,244,9.0,14.0,43,-99.99,,,0.00,809.000000,,2013-04-24 17:42:00,
2013-04-24 12:52:00,45.0,24.0,-100.00,WSW,244,9.0,14.0,43,-99.99,,,0.00,809.000000,,2013-04-24 17:52:00,
2013-04-24 13:02:00,45.0,24.0,-100.00,WSW,244,9.0,14.0,43,-99.99,,,0.00,809.000000,,2013-04-24 18:02:00,
2013-04-24 13:33:00,49.0,27.0,-100.00,SW,235,9.0,15.0,43,0.00,,,0.00,872.000000,,2013-04-24 18:33:00,
2013-04-24 13:43:00,49.0,27.0,-100.00,SW,235,9.0,15.0,43,0.00,,,0.00,872.000000,,2013-04-24 18:43:00,
2013-04-24 13:52:00,49.0,27.0,-100.00,SW,235,9.0,15.0,43,0.00,,,0.00,872.000000,,2013-04-24 18:52:00,
2013-04-24 14:02:00,49.0,27.0,-100.00,SW,235,9.0,15.0,43,0.00,,,0.00,872.000000,,2013-04-24 19:02:00,
2013-04-24 14:32:00,51.0,28.0,-100.00,WSW,244,13.0,20.0,40,0.00,,,0.00,841.000000,,2013-04-24 19:32:00,
2013-04-24 14:42:00,51.0,28.0,-100.00,WSW,244,13.0,20.0,40,0.00,,,0.00,841.000000,,2013-04-24 19:42:00,
2013-04-24 14:52:00,51.0,28.0,-100.00,WSW,244,13.0,20.0,40,0.00,,,0.00,841.000000,,2013-04-24 19:52:00,
2013-04-24 15:02:00,51.0,28.0,-100.00,WSW,244,13.0,20.0,40,0.00,,,0.00,841.000000,,2013-04-24 20:02:00,
2013-04-24 15:32:00,49.0,23.0,-100.00,WSW,246,11.0,22.0,35,0.00,,,0.00,682.000000,,2013-04-24 20:32:00,
2013-04-24 15:42:00,49.0,23.0,-100.00,WSW,246,11.0,22.0,35,0.00,,,0.00,682.000000,,2013-04-24 20:42:00,
2013-04-24 15:52:00,49.0,23.0,-100.00,WSW,246,11.0,22.0,35,0.00,,,0.00,682.000000,,2013-04-24 20:52:00,
2013-04-24 16:02:00,49.0,23.0,-100.00,WSW,246,11.0,22.0,35,0.00,,,0.00,682.000000,,2013-04-24 21:02:00,
2013-04-24 16:33:00,50.0,23.0,-100.00,WSW,256,9.0,20.0,35,0.00,,,0.00,560.000000,,2013-04-24 21:33:00,
2013-04-24 16:42:00,50.0,23.0,-100.00,WSW,256,9.0,20.0,35,0.00,,,0.00,560.000000,,2013-04-24 21:42:00,
2013-04-24 16:52:00,50.0,23.0,-100.00,WSW,256,9.0,20.0,35,0.00,,,0.00,560.000000,,2013-04-24 21:52:00,
2013-04-24 17:03:00,50.0,23.0,-100.00,WSW,256,9.0,20.0,35,0.00,,,0.00,560.000000,,2013-04-24 22:03:00,
2013-04-24 17:33:00,50.0,24.0,-100.00,WSW,244,13.0,20.0,36,0.00,,,0.00,492.000000,,2013-04-24 22:33:00,
2013-04-24 17:42:00,50.0,24.0,-100.00,WSW,244,13.0,20.0,36,0.00,,,0.00,492.000000,,2013-04-24 22:42:00,
2013-04-24 17:52:00,50.0,24.0,-100.00,WSW,244,13.0,20.0,36,0.00,,,0.00,492.000000,,2013-04-24 22:52:00,
2013-04-24 18:02:00,50.0,24.0,-100.00,WSW,244,13.0,20.0,36,0.00,,,0.00,492.000000,,2013-04-24 23:02:00,
2013-04-24 18:32:00,49.0,26.0,-100.00,SW,225,11.0,22.0,40,0.00,,,0.00,296.000000,,2013-04-24 23:32:00,
2013-04-24 18:42:00,49.0,26.0,-100.00,SW,225,11.0,22.0,40,0.00,,,0.00,296.000000,,2013-04-24 23:42:00,
2013-04-24 18:52:00,49.0,26.0,-100.00,SW,225,11.0,22.0,40,0.00,,,0.00,296.000000,,2013-04-24 23:52:00,
2013-04-24 19:01:00,49.0,26.0,-100.00,SW,225,11.0,22.0,40,0.00,,,0.00,296.000000,,2013-04-25 00:01:00,
2013-04-24 19:32:00,48.0,27.0,-100.00,SW,225,6.0,24.0,43,0.00,,,-99.99,102.000000,,2013-04-25 00:32:00,
2013-04-24 19:42:00,48.0,27.0,-100.00,SW,225,6.0,24.0,43,0.00,,,-99.99,102.000000,,2013-04-25 00:42:00,
2013-04-24 19:52:00,48.0,27.0,-100.00,SW,225,6.0,24.0,43,0.00,,,-99.99,102.000000,,2013-04-25 00:52:00,
2013-04-24 20:01:00,48.0,27.0,-100.00,SW,225,6.0,24.0,43,0.00,,,-99.99,102.000000,,2013-04-25 01:01:00,
2013-04-24 20:32:00,45.0,25.0,-100.00,South,178,5.0,12.0,46,0.00,,,0.00,24.000000,,2013-04-25 01:32:00,
2013-04-24 20:42:00,45.0,25.0,-100.00,South,178,5.0,12.0,46,0.00,,,0.00,24.000000,,2013-04-25 01:42:00,
2013-04-24 20:52:00,45.0,25.0,-100.00,South,178,5.0,12.0,46,0.00,,,0.00,24.000000,,2013-04-25 01:52:00,
2013-04-24 21:02:00,45.0,25.0,-100.00,South,178,5.0,12.0,46,0.00,,,0.00,24.000000,,2013-04-25 02:02:00,
2013-04-24 21:32:00,44.0,27.0,-100.00,WSW,246,7.0,20.0,51,0.00,,,0.00,0.000000,,2013-04-25 02:32:00,
2013-04-24 21:42:00,44.0,27.0,-100.00,WSW,246,7.0,20.0,51,0.00,,,0.00,0.000000,,2013-04-25 02:42:00,
2013-04-24 21:52:00,44.0,27.0,-100.00,WSW,246,7.0,20.0,51,0.00,,,0.00,0.000000,,2013-04-25 02:52:00,
2013-04-24 22:02:00,44.0,27.0,-100.00,WSW,246,7.0,20.0,51,0.00,,,0.00,0.000000,,2013-04-25 03:02:00,
2013-04-24 22:33:00,36.0,35.0,-100.00,West,275,3.0,22.0,95,0.06,,,0.06,0.000000,,2013-04-25 03:33:00,
2013-04-24 22:43:00,36.0,35.0,-100.00,West,275,3.0,22.0,95,0.06,,,0.06,0.000000,,2013-04-25 03:43:00,
2013-04-24 22:52:00,36.0,35.0,-100.00,West,275,3.0,22.0,95,0.06,,,0.06,0.000000,,2013-04-25 03:52:00,
2013-04-24 23:03:00,36.0,35.0,-100.00,West,275,3.0,22.0,95,0.06,,,0.06,0.000000,,2013-04-25 04:03:00,
2013-04-24 23:33:00,35.0,35.0,-100.00,WSW,258,4.0,10.0,100,0.06,,,0.12,0.000000,,2013-04-25 04:33:00,
2013-04-24 23:43:00,35.0,35.0,-100.00,WSW,258,4.0,10.0,100,0.06,,,0.12,0.000000,,2013-04-25 04:43:00,
2013-04-24 23:52:00,35.0,35.0,-100.00,WSW,258,4.0,10.0,100,0.06,,,0.12,0.000000,,2013-04-25 04:52:00,